sensor_id;sensor_type;location;lat;lon;timestamp;P1;durP1;ratioP1;P2;durP2;ratioP2
69392;SDS011;56582;44.624;20.378;2022-07-03T00:01:00;7.13;;;4.53;;
69392;SDS011;56582;44.624;20.378;2022-07-03T00:03:25;8.68;;;4.28;;
69392;SDS011;56582;44.624;20.378;2022-07-03T00:05:51;8.17;;;4.37;;
69392;SDS011;56582;44.624;20.378;2022-07-03T00:08:17;7.03;;;4.28;;
69392;SDS011;56582;44.624;20.378;2022-07-03T00:10:42;7.17;;;4.13;;
69392;SDS011;56582;44.624;20.378;2022-07-03T00:13:08;6.87;;;4.77;;
69392;SDS011;56582;44.624;20.378;2022-07-03T00:15:33;10.73;;;4.75;;
69392;SDS011;56582;44.624;20.378;2022-07-03T00:17:59;9.50;;;4.43;;
69392;SDS011;56582;44.624;20.378;2022-07-03T00:20:24;8.50;;;5.10;;
69392;SDS011;56582;44.624;20.378;2022-07-03T00:22:55;8.73;;;5.05;;
69392;SDS011;56582;44.624;20.378;2022-07-03T00:25:25;7.78;;;4.80;;
69392;SDS011;56582;44.624;20.378;2022-07-03T00:27:51;8.83;;;5.50;;
69392;SDS011;56582;44.624;20.378;2022-07-03T00:30:16;7.03;;;5.05;;
69392;SDS011;56582;44.624;20.378;2022-07-03T00:32:42;10.23;;;6.00;;
69392;SDS011;56582;44.624;20.378;2022-07-03T00:35:08;8.93;;;5.53;;
69392;SDS011;56582;44.624;20.378;2022-07-03T00:37:34;9.32;;;5.40;;
69392;SDS011;56582;44.624;20.378;2022-07-03T00:39:59;9.53;;;5.87;;
69392;SDS011;56582;44.624;20.378;2022-07-03T00:42:25;10.30;;;5.83;;
69392;SDS011;56582;44.624;20.378;2022-07-03T00:44:54;9.70;;;5.45;;
69392;SDS011;56582;44.624;20.378;2022-07-03T00:47:22;8.30;;;5.93;;
69392;SDS011;56582;44.624;20.378;2022-07-03T00:49:49;8.00;;;5.47;;
69392;SDS011;56582;44.624;20.378;2022-07-03T00:52:20;10.07;;;5.60;;
69392;SDS011;56582;44.624;20.378;2022-07-03T00:54:51;8.90;;;4.97;;
69392;SDS011;56582;44.624;20.378;2022-07-03T00:57:19;11.48;;;5.65;;
69392;SDS011;56582;44.624;20.378;2022-07-03T00:59:45;10.60;;;5.57;;
69392;SDS011;56582;44.624;20.378;2022-07-03T01:02:59;19.63;;;5.93;;
69392;SDS011;56582;44.624;20.378;2022-07-03T01:13:17;9.93;;;5.70;;
69392;SDS011;56582;44.624;20.378;2022-07-03T01:15:50;8.95;;;5.40;;
69392;SDS011;56582;44.624;20.378;2022-07-03T01:18:25;10.40;;;6.20;;
69392;SDS011;56582;44.624;20.378;2022-07-03T01:21:09;9.45;;;6.22;;
69392;SDS011;56582;44.624;20.378;2022-07-03T01:23:46;7.47;;;5.22;;
69392;SDS011;56582;44.624;20.378;2022-07-03T01:26:27;10.07;;;6.32;;
69392;SDS011;56582;44.624;20.378;2022-07-03T01:28:56;11.10;;;6.63;;
69392;SDS011;56582;44.624;20.378;2022-07-03T01:31:28;10.87;;;6.67;;
69392;SDS011;56582;44.624;20.378;2022-07-03T01:33:55;12.15;;;6.72;;
69392;SDS011;56582;44.624;20.378;2022-07-03T01:36:22;9.95;;;6.25;;
69392;SDS011;56582;44.624;20.378;2022-07-03T01:38:50;9.57;;;6.50;;
69392;SDS011;56582;44.624;20.378;2022-07-03T01:41:16;9.27;;;5.80;;
69392;SDS011;56582;44.624;20.378;2022-07-03T01:43:48;9.35;;;6.38;;
69392;SDS011;56582;44.624;20.378;2022-07-03T01:46:17;16.95;;;8.68;;
69392;SDS011;56582;44.624;20.378;2022-07-03T01:48:43;13.80;;;7.13;;
69392;SDS011;56582;44.624;20.378;2022-07-03T01:51:13;14.77;;;8.20;;
69392;SDS011;56582;44.624;20.378;2022-07-03T01:53:43;16.17;;;8.60;;
69392;SDS011;56582;44.624;20.378;2022-07-03T01:56:11;15.18;;;8.05;;
69392;SDS011;56582;44.624;20.378;2022-07-03T02:02:09;13.95;;;8.43;;
69392;SDS011;56582;44.624;20.378;2022-07-03T02:07:40;16.48;;;9.77;;
69392;SDS011;56582;44.624;20.378;2022-07-03T02:10:15;14.85;;;9.45;;
69392;SDS011;56582;44.624;20.378;2022-07-03T02:15:18;18.08;;;10.00;;
69392;SDS011;56582;44.624;20.378;2022-07-03T02:17:50;17.55;;;10.55;;
69392;SDS011;56582;44.624;20.378;2022-07-03T02:20:17;15.93;;;10.18;;
69392;SDS011;56582;44.624;20.378;2022-07-03T02:22:47;17.08;;;9.88;;
69392;SDS011;56582;44.624;20.378;2022-07-03T02:25:23;14.53;;;9.73;;
69392;SDS011;56582;44.624;20.378;2022-07-03T02:27:54;16.15;;;10.07;;
69392;SDS011;56582;44.624;20.378;2022-07-03T02:30:23;16.58;;;10.23;;
69392;SDS011;56582;44.624;20.378;2022-07-03T02:32:52;16.17;;;9.80;;
69392;SDS011;56582;44.624;20.378;2022-07-03T02:35:21;19.08;;;10.38;;
69392;SDS011;56582;44.624;20.378;2022-07-03T02:37:53;16.60;;;9.83;;
69392;SDS011;56582;44.624;20.378;2022-07-03T02:40:27;17.05;;;9.65;;
69392;SDS011;56582;44.624;20.378;2022-07-03T02:45:29;15.50;;;9.95;;
69392;SDS011;56582;44.624;20.378;2022-07-03T02:48:16;18.35;;;10.15;;
69392;SDS011;56582;44.624;20.378;2022-07-03T02:50:50;14.87;;;9.20;;
69392;SDS011;56582;44.624;20.378;2022-07-03T02:53:22;17.13;;;8.43;;
69392;SDS011;56582;44.624;20.378;2022-07-03T02:55:58;13.98;;;9.07;;
69392;SDS011;56582;44.624;20.378;2022-07-03T03:01:03;14.97;;;9.77;;
69392;SDS011;56582;44.624;20.378;2022-07-03T03:03:33;17.42;;;9.85;;
69392;SDS011;56582;44.624;20.378;2022-07-03T03:06:12;14.70;;;8.10;;
69392;SDS011;56582;44.624;20.378;2022-07-03T03:08:42;15.63;;;8.47;;
69392;SDS011;56582;44.624;20.378;2022-07-03T03:11:39;14.90;;;8.50;;
69392;SDS011;56582;44.624;20.378;2022-07-03T03:14:10;15.30;;;8.70;;
69392;SDS011;56582;44.624;20.378;2022-07-03T03:16:49;14.40;;;7.50;;
69392;SDS011;56582;44.624;20.378;2022-07-03T03:19:20;12.25;;;8.15;;
69392;SDS011;56582;44.624;20.378;2022-07-03T03:24:38;9.57;;;3.72;;
69392;SDS011;56582;44.624;20.378;2022-07-03T03:27:03;11.18;;;6.70;;
69392;SDS011;56582;44.624;20.378;2022-07-03T03:29:29;12.00;;;7.20;;
69392;SDS011;56582;44.624;20.378;2022-07-03T03:31:55;10.68;;;6.50;;
69392;SDS011;56582;44.624;20.378;2022-07-03T03:34:21;10.20;;;4.77;;
69392;SDS011;56582;44.624;20.378;2022-07-03T03:36:47;15.27;;;7.60;;
69392;SDS011;56582;44.624;20.378;2022-07-03T03:39:13;9.17;;;5.13;;
69392;SDS011;56582;44.624;20.378;2022-07-03T03:41:38;12.98;;;6.15;;
69392;SDS011;56582;44.624;20.378;2022-07-03T03:44:04;17.10;;;7.67;;
69392;SDS011;56582;44.624;20.378;2022-07-03T03:46:29;11.77;;;5.77;;
69392;SDS011;56582;44.624;20.378;2022-07-03T03:48:55;11.87;;;6.47;;
69392;SDS011;56582;44.624;20.378;2022-07-03T03:51:21;14.10;;;6.55;;
69392;SDS011;56582;44.624;20.378;2022-07-03T03:53:47;13.47;;;5.93;;
69392;SDS011;56582;44.624;20.378;2022-07-03T03:56:13;12.02;;;6.60;;
69392;SDS011;56582;44.624;20.378;2022-07-03T03:58:40;11.82;;;7.60;;
69392;SDS011;56582;44.624;20.378;2022-07-03T04:01:07;11.93;;;7.33;;
69392;SDS011;56582;44.624;20.378;2022-07-03T04:03:35;13.32;;;7.25;;
69392;SDS011;56582;44.624;20.378;2022-07-03T04:06:00;13.95;;;7.70;;
69392;SDS011;56582;44.624;20.378;2022-07-03T04:08:27;14.77;;;7.30;;
69392;SDS011;56582;44.624;20.378;2022-07-03T04:10:53;13.70;;;7.50;;
69392;SDS011;56582;44.624;20.378;2022-07-03T04:13:19;12.82;;;7.25;;
69392;SDS011;56582;44.624;20.378;2022-07-03T04:15:45;11.77;;;7.60;;
69392;SDS011;56582;44.624;20.378;2022-07-03T04:18:11;12.70;;;7.60;;
69392;SDS011;56582;44.624;20.378;2022-07-03T04:20:36;12.23;;;7.50;;
69392;SDS011;56582;44.624;20.378;2022-07-03T04:23:02;18.20;;;8.10;;
69392;SDS011;56582;44.624;20.378;2022-07-03T04:25:28;13.80;;;7.65;;
69392;SDS011;56582;44.624;20.378;2022-07-03T04:27:53;11.80;;;7.30;;
69392;SDS011;56582;44.624;20.378;2022-07-03T04:30:19;13.13;;;7.93;;
69392;SDS011;56582;44.624;20.378;2022-07-03T04:32:45;20.08;;;7.85;;
69392;SDS011;56582;44.624;20.378;2022-07-03T04:35:11;11.35;;;6.82;;
69392;SDS011;56582;44.624;20.378;2022-07-03T04:37:37;13.53;;;7.20;;
69392;SDS011;56582;44.624;20.378;2022-07-03T04:40:02;11.90;;;7.60;;
69392;SDS011;56582;44.624;20.378;2022-07-03T04:42:28;12.80;;;7.15;;
69392;SDS011;56582;44.624;20.378;2022-07-03T04:44:54;11.53;;;6.93;;
69392;SDS011;56582;44.624;20.378;2022-07-03T04:47:19;26.08;;;7.22;;
69392;SDS011;56582;44.624;20.378;2022-07-03T04:49:45;41.80;;;8.20;;
69392;SDS011;56582;44.624;20.378;2022-07-03T04:52:11;22.37;;;6.10;;
69392;SDS011;56582;44.624;20.378;2022-07-03T04:54:36;16.90;;;6.50;;
69392;SDS011;56582;44.624;20.378;2022-07-03T04:57:02;9.75;;;6.32;;
69392;SDS011;56582;44.624;20.378;2022-07-03T04:59:28;24.00;;;6.93;;
69392;SDS011;56582;44.624;20.378;2022-07-03T05:01:53;16.65;;;6.90;;
69392;SDS011;56582;44.624;20.378;2022-07-03T05:04:19;9.27;;;6.20;;
69392;SDS011;56582;44.624;20.378;2022-07-03T05:06:44;13.87;;;6.80;;
69392;SDS011;56582;44.624;20.378;2022-07-03T05:09:10;9.40;;;6.63;;
69392;SDS011;56582;44.624;20.378;2022-07-03T05:11:35;10.47;;;5.57;;
69392;SDS011;56582;44.624;20.378;2022-07-03T05:14:01;20.00;;;7.07;;
69392;SDS011;56582;44.624;20.378;2022-07-03T05:16:27;9.60;;;5.20;;
69392;SDS011;56582;44.624;20.378;2022-07-03T05:18:53;9.87;;;6.10;;
69392;SDS011;56582;44.624;20.378;2022-07-03T05:21:18;10.00;;;5.88;;
69392;SDS011;56582;44.624;20.378;2022-07-03T05:23:44;11.73;;;6.47;;
69392;SDS011;56582;44.624;20.378;2022-07-03T05:26:09;9.23;;;6.13;;
69392;SDS011;56582;44.624;20.378;2022-07-03T05:28:35;9.38;;;5.90;;
69392;SDS011;56582;44.624;20.378;2022-07-03T05:31:00;7.27;;;5.23;;
69392;SDS011;56582;44.624;20.378;2022-07-03T05:33:26;8.13;;;5.57;;
69392;SDS011;56582;44.624;20.378;2022-07-03T05:35:51;9.43;;;5.43;;
69392;SDS011;56582;44.624;20.378;2022-07-03T05:38:19;10.20;;;5.78;;
69392;SDS011;56582;44.624;20.378;2022-07-03T05:41:03;9.17;;;5.67;;
69392;SDS011;56582;44.624;20.378;2022-07-03T05:43:29;8.55;;;5.25;;
69392;SDS011;56582;44.624;20.378;2022-07-03T05:45:54;11.30;;;5.67;;
69392;SDS011;56582;44.624;20.378;2022-07-03T05:48:20;10.23;;;4.70;;
69392;SDS011;56582;44.624;20.378;2022-07-03T05:50:45;8.68;;;4.97;;
69392;SDS011;56582;44.624;20.378;2022-07-03T05:53:11;6.83;;;4.53;;
69392;SDS011;56582;44.624;20.378;2022-07-03T05:55:36;9.97;;;5.03;;
69392;SDS011;56582;44.624;20.378;2022-07-03T05:58:02;7.50;;;5.27;;
69392;SDS011;56582;44.624;20.378;2022-07-03T06:00:27;8.52;;;5.57;;
69392;SDS011;56582;44.624;20.378;2022-07-03T06:02:53;8.77;;;5.10;;
69392;SDS011;56582;44.624;20.378;2022-07-03T06:05:19;9.70;;;5.45;;
69392;SDS011;56582;44.624;20.378;2022-07-03T06:07:44;8.73;;;5.00;;
69392;SDS011;56582;44.624;20.378;2022-07-03T06:10:10;8.30;;;5.47;;
69392;SDS011;56582;44.624;20.378;2022-07-03T06:12:35;7.50;;;4.23;;
69392;SDS011;56582;44.624;20.378;2022-07-03T06:15:01;7.03;;;4.43;;
69392;SDS011;56582;44.624;20.378;2022-07-03T06:17:26;6.35;;;4.60;;
69392;SDS011;56582;44.624;20.378;2022-07-03T06:19:52;7.03;;;4.40;;
69392;SDS011;56582;44.624;20.378;2022-07-03T06:22:17;7.07;;;5.10;;
69392;SDS011;56582;44.624;20.378;2022-07-03T06:24:43;8.33;;;4.90;;
69392;SDS011;56582;44.624;20.378;2022-07-03T06:27:08;8.20;;;5.30;;
69392;SDS011;56582;44.624;20.378;2022-07-03T06:29:33;7.77;;;5.50;;
69392;SDS011;56582;44.624;20.378;2022-07-03T06:31:59;6.90;;;4.70;;
69392;SDS011;56582;44.624;20.378;2022-07-03T06:34:25;11.15;;;5.72;;
69392;SDS011;56582;44.624;20.378;2022-07-03T06:36:50;10.03;;;4.00;;
69392;SDS011;56582;44.624;20.378;2022-07-03T06:39:16;8.27;;;6.17;;
69392;SDS011;56582;44.624;20.378;2022-07-03T06:41:41;7.35;;;5.20;;
69392;SDS011;56582;44.624;20.378;2022-07-03T06:44:07;9.33;;;4.97;;
69392;SDS011;56582;44.624;20.378;2022-07-03T06:46:32;5.83;;;4.80;;
69392;SDS011;56582;44.624;20.378;2022-07-03T06:48:57;8.53;;;5.20;;
69392;SDS011;56582;44.624;20.378;2022-07-03T06:51:23;7.93;;;4.40;;
69392;SDS011;56582;44.624;20.378;2022-07-03T06:53:48;10.30;;;4.73;;
69392;SDS011;56582;44.624;20.378;2022-07-03T06:56:14;8.10;;;4.30;;
69392;SDS011;56582;44.624;20.378;2022-07-03T06:58:39;8.68;;;4.80;;
69392;SDS011;56582;44.624;20.378;2022-07-03T07:01:05;6.40;;;3.87;;
69392;SDS011;56582;44.624;20.378;2022-07-03T07:03:30;8.00;;;4.70;;
69392;SDS011;56582;44.624;20.378;2022-07-03T07:05:56;7.53;;;4.60;;
69392;SDS011;56582;44.624;20.378;2022-07-03T07:08:22;6.77;;;3.80;;
69392;SDS011;56582;44.624;20.378;2022-07-03T07:10:47;6.75;;;4.70;;
69392;SDS011;56582;44.624;20.378;2022-07-03T07:13:13;7.80;;;4.43;;
69392;SDS011;56582;44.624;20.378;2022-07-03T07:15:38;9.47;;;4.23;;
69392;SDS011;56582;44.624;20.378;2022-07-03T07:18:04;7.65;;;4.22;;
69392;SDS011;56582;44.624;20.378;2022-07-03T07:20:30;7.87;;;4.90;;
69392;SDS011;56582;44.624;20.378;2022-07-03T07:22:59;8.27;;;4.28;;
69392;SDS011;56582;44.624;20.378;2022-07-03T07:25:25;7.60;;;4.18;;
69392;SDS011;56582;44.624;20.378;2022-07-03T07:27:54;8.75;;;4.60;;
69392;SDS011;56582;44.624;20.378;2022-07-03T07:30:20;9.17;;;4.40;;
69392;SDS011;56582;44.624;20.378;2022-07-03T07:32:47;11.00;;;4.63;;
69392;SDS011;56582;44.624;20.378;2022-07-03T07:35:12;9.40;;;4.43;;
69392;SDS011;56582;44.624;20.378;2022-07-03T07:37:38;9.53;;;4.60;;
69392;SDS011;56582;44.624;20.378;2022-07-03T07:40:04;7.35;;;5.45;;
69392;SDS011;56582;44.624;20.378;2022-07-03T07:42:30;9.25;;;5.15;;
69392;SDS011;56582;44.624;20.378;2022-07-03T07:44:59;9.23;;;4.70;;
69392;SDS011;56582;44.624;20.378;2022-07-03T07:47:25;11.05;;;4.43;;
69392;SDS011;56582;44.624;20.378;2022-07-03T07:49:54;11.15;;;5.97;;
69392;SDS011;56582;44.624;20.378;2022-07-03T07:52:20;12.77;;;6.40;;
69392;SDS011;56582;44.624;20.378;2022-07-03T07:54:49;8.85;;;4.55;;
69392;SDS011;56582;44.624;20.378;2022-07-03T07:57:15;6.83;;;4.97;;
69392;SDS011;56582;44.624;20.378;2022-07-03T07:59:40;11.10;;;5.65;;
69392;SDS011;56582;44.624;20.378;2022-07-03T08:02:06;6.70;;;4.40;;
69392;SDS011;56582;44.624;20.378;2022-07-03T08:04:50;7.00;;;4.78;;
69392;SDS011;56582;44.624;20.378;2022-07-03T08:07:34;9.63;;;4.57;;
69392;SDS011;56582;44.624;20.378;2022-07-03T08:09:59;10.37;;;4.83;;
69392;SDS011;56582;44.624;20.378;2022-07-03T08:12:25;8.45;;;5.10;;
69392;SDS011;56582;44.624;20.378;2022-07-03T08:14:50;8.80;;;5.00;;
69392;SDS011;56582;44.624;20.378;2022-07-03T08:17:16;7.63;;;4.87;;
69392;SDS011;56582;44.624;20.378;2022-07-03T08:19:41;7.63;;;4.10;;
69392;SDS011;56582;44.624;20.378;2022-07-03T08:22:06;8.10;;;4.40;;
69392;SDS011;56582;44.624;20.378;2022-07-03T08:24:32;8.50;;;4.60;;
69392;SDS011;56582;44.624;20.378;2022-07-03T08:26:57;8.57;;;4.47;;
69392;SDS011;56582;44.624;20.378;2022-07-03T08:29:23;8.00;;;4.20;;
69392;SDS011;56582;44.624;20.378;2022-07-03T08:31:48;9.73;;;5.60;;
69392;SDS011;56582;44.624;20.378;2022-07-03T08:34:14;8.53;;;4.47;;
69392;SDS011;56582;44.624;20.378;2022-07-03T08:36:43;10.00;;;4.45;;
69392;SDS011;56582;44.624;20.378;2022-07-03T08:39:08;7.22;;;4.45;;
69392;SDS011;56582;44.624;20.378;2022-07-03T08:41:36;7.03;;;4.40;;
69392;SDS011;56582;44.624;20.378;2022-07-03T08:44:02;8.40;;;5.35;;
69392;SDS011;56582;44.624;20.378;2022-07-03T08:46:30;7.22;;;4.53;;
69392;SDS011;56582;44.624;20.378;2022-07-03T08:48:57;10.15;;;5.15;;
69392;SDS011;56582;44.624;20.378;2022-07-03T08:51:26;7.45;;;4.78;;
69392;SDS011;56582;44.624;20.378;2022-07-03T08:53:52;11.03;;;5.47;;
69392;SDS011;56582;44.624;20.378;2022-07-03T08:56:22;7.00;;;4.45;;
69392;SDS011;56582;44.624;20.378;2022-07-03T08:58:48;8.60;;;5.00;;
69392;SDS011;56582;44.624;20.378;2022-07-03T09:01:18;7.30;;;5.20;;
69392;SDS011;56582;44.624;20.378;2022-07-03T09:03:44;9.00;;;5.22;;
69392;SDS011;56582;44.624;20.378;2022-07-03T09:06:14;9.25;;;5.10;;
69392;SDS011;56582;44.624;20.378;2022-07-03T09:08:40;9.30;;;4.90;;
69392;SDS011;56582;44.624;20.378;2022-07-03T09:11:08;6.88;;;5.10;;
69392;SDS011;56582;44.624;20.378;2022-07-03T09:13:35;10.97;;;5.40;;
69392;SDS011;56582;44.624;20.378;2022-07-03T09:16:01;7.65;;;4.75;;
69392;SDS011;56582;44.624;20.378;2022-07-03T09:18:36;7.70;;;4.77;;
69392;SDS011;56582;44.624;20.378;2022-07-03T09:21:04;10.90;;;5.20;;
69392;SDS011;56582;44.624;20.378;2022-07-03T09:23:34;8.83;;;4.90;;
69392;SDS011;56582;44.624;20.378;2022-07-03T09:26:04;9.50;;;5.23;;
69392;SDS011;56582;44.624;20.378;2022-07-03T09:31:08;10.75;;;5.63;;
69392;SDS011;56582;44.624;20.378;2022-07-03T09:33:47;8.45;;;5.60;;
69392;SDS011;56582;44.624;20.378;2022-07-03T09:36:46;8.93;;;5.05;;
69392;SDS011;56582;44.624;20.378;2022-07-03T09:41:58;11.60;;;5.20;;
69392;SDS011;56582;44.624;20.378;2022-07-03T09:49:51;7.93;;;5.40;;
69392;SDS011;56582;44.624;20.378;2022-07-03T09:57:34;8.20;;;5.30;;
69392;SDS011;56582;44.624;20.378;2022-07-03T10:02:53;9.00;;;5.85;;
69392;SDS011;56582;44.624;20.378;2022-07-03T10:05:38;8.00;;;5.93;;
69392;SDS011;56582;44.624;20.378;2022-07-03T10:08:11;11.80;;;5.68;;
69392;SDS011;56582;44.624;20.378;2022-07-03T10:10:47;8.13;;;5.07;;
69392;SDS011;56582;44.624;20.378;2022-07-03T10:13:13;8.20;;;5.38;;
69392;SDS011;56582;44.624;20.378;2022-07-03T10:15:41;9.63;;;6.30;;
69392;SDS011;56582;44.624;20.378;2022-07-03T10:18:11;12.23;;;5.83;;
69392;SDS011;56582;44.624;20.378;2022-07-03T10:20:40;10.05;;;5.75;;
69392;SDS011;56582;44.624;20.378;2022-07-03T10:23:09;9.70;;;5.80;;
69392;SDS011;56582;44.624;20.378;2022-07-03T10:25:35;8.63;;;5.65;;
69392;SDS011;56582;44.624;20.378;2022-07-03T10:28:05;11.82;;;5.60;;
69392;SDS011;56582;44.624;20.378;2022-07-03T10:30:31;12.13;;;6.57;;
69392;SDS011;56582;44.624;20.378;2022-07-03T10:32:57;9.23;;;6.18;;
69392;SDS011;56582;44.624;20.378;2022-07-03T10:35:24;10.43;;;5.10;;
69392;SDS011;56582;44.624;20.378;2022-07-03T10:43:34;10.90;;;6.28;;
69392;SDS011;56582;44.624;20.378;2022-07-03T10:46:22;9.40;;;6.07;;
69392;SDS011;56582;44.624;20.378;2022-07-03T10:54:23;10.05;;;6.32;;
69392;SDS011;56582;44.624;20.378;2022-07-03T11:02:17;11.73;;;7.10;;
69392;SDS011;56582;44.624;20.378;2022-07-03T11:07:27;9.65;;;6.28;;
69392;SDS011;56582;44.624;20.378;2022-07-03T11:20:34;9.90;;;6.55;;
69392;SDS011;56582;44.624;20.378;2022-07-03T11:25:51;11.18;;;7.07;;
69392;SDS011;56582;44.624;20.378;2022-07-03T11:38:41;10.10;;;7.03;;
69392;SDS011;56582;44.624;20.378;2022-07-03T11:41:08;11.15;;;7.53;;
69392;SDS011;56582;44.624;20.378;2022-07-03T11:43:35;9.40;;;7.00;;
69392;SDS011;56582;44.624;20.378;2022-07-03T11:46:01;9.87;;;7.10;;
69392;SDS011;56582;44.624;20.378;2022-07-03T11:48:29;10.35;;;7.00;;
69392;SDS011;56582;44.624;20.378;2022-07-03T11:51:02;13.88;;;7.53;;
69392;SDS011;56582;44.624;20.378;2022-07-03T11:53:30;10.55;;;7.65;;
69392;SDS011;56582;44.624;20.378;2022-07-03T11:56:01;13.50;;;7.25;;
69392;SDS011;56582;44.624;20.378;2022-07-03T11:58:46;9.63;;;6.67;;
69392;SDS011;56582;44.624;20.378;2022-07-03T12:03:53;9.48;;;7.78;;
69392;SDS011;56582;44.624;20.378;2022-07-03T12:06:36;10.55;;;7.05;;
69392;SDS011;56582;44.624;20.378;2022-07-03T12:09:11;9.73;;;8.13;;
69392;SDS011;56582;44.624;20.378;2022-07-03T12:12:12;11.60;;;7.87;;
69392;SDS011;56582;44.624;20.378;2022-07-03T12:17:14;11.13;;;8.23;;
69392;SDS011;56582;44.624;20.378;2022-07-03T12:19:46;12.88;;;7.65;;
69392;SDS011;56582;44.624;20.378;2022-07-03T12:22:21;11.40;;;8.65;;
69392;SDS011;56582;44.624;20.378;2022-07-03T12:27:33;10.77;;;8.40;;
69392;SDS011;56582;44.624;20.378;2022-07-03T12:30:00;10.82;;;8.68;;
69392;SDS011;56582;44.624;20.378;2022-07-03T12:32:26;13.18;;;9.25;;
69392;SDS011;56582;44.624;20.378;2022-07-03T12:34:53;15.35;;;8.85;;
69392;SDS011;56582;44.624;20.378;2022-07-03T12:37:35;10.37;;;8.37;;
69392;SDS011;56582;44.624;20.378;2022-07-03T12:40:06;12.93;;;8.80;;
69392;SDS011;56582;44.624;20.378;2022-07-03T12:42:45;11.95;;;8.45;;
69392;SDS011;56582;44.624;20.378;2022-07-03T12:45:12;11.57;;;8.75;;
69392;SDS011;56582;44.624;20.378;2022-07-03T12:47:40;13.35;;;9.27;;
69392;SDS011;56582;44.624;20.378;2022-07-03T12:50:07;13.77;;;8.83;;
69392;SDS011;56582;44.624;20.378;2022-07-03T12:52:34;11.15;;;8.40;;
69392;SDS011;56582;44.624;20.378;2022-07-03T12:55:21;14.63;;;9.35;;
69392;SDS011;56582;44.624;20.378;2022-07-03T12:57:48;13.47;;;9.20;;
69392;SDS011;56582;44.624;20.378;2022-07-03T13:00:42;13.82;;;8.93;;
69392;SDS011;56582;44.624;20.378;2022-07-03T13:03:09;16.25;;;9.02;;
69392;SDS011;56582;44.624;20.378;2022-07-03T13:05:51;10.30;;;8.20;;
69392;SDS011;56582;44.624;20.378;2022-07-03T13:08:16;11.43;;;8.83;;
69392;SDS011;56582;44.624;20.378;2022-07-03T13:10:42;11.03;;;8.27;;
69392;SDS011;56582;44.624;20.378;2022-07-03T13:13:07;14.00;;;8.63;;
69392;SDS011;56582;44.624;20.378;2022-07-03T13:15:33;12.53;;;8.87;;
69392;SDS011;56582;44.624;20.378;2022-07-03T13:17:59;9.57;;;8.13;;
69392;SDS011;56582;44.624;20.378;2022-07-03T13:20:28;10.77;;;7.97;;
69392;SDS011;56582;44.624;20.378;2022-07-03T13:22:59;10.13;;;8.35;;
69392;SDS011;56582;44.624;20.378;2022-07-03T13:25:26;13.88;;;8.82;;
69392;SDS011;56582;44.624;20.378;2022-07-03T13:27:52;12.90;;;8.70;;
69392;SDS011;56582;44.624;20.378;2022-07-03T13:30:31;12.75;;;8.48;;
69392;SDS011;56582;44.624;20.378;2022-07-03T13:32:58;14.18;;;8.75;;
69392;SDS011;56582;44.624;20.378;2022-07-03T13:35:23;15.43;;;9.07;;
69392;SDS011;56582;44.624;20.378;2022-07-03T13:37:48;13.88;;;9.27;;
69392;SDS011;56582;44.624;20.378;2022-07-03T13:40:14;12.90;;;9.13;;
69392;SDS011;56582;44.624;20.378;2022-07-03T13:42:40;13.37;;;9.23;;
69392;SDS011;56582;44.624;20.378;2022-07-03T13:45:05;11.73;;;8.80;;
69392;SDS011;56582;44.624;20.378;2022-07-03T13:47:31;11.17;;;9.03;;
69392;SDS011;56582;44.624;20.378;2022-07-03T13:49:56;11.70;;;8.65;;
69392;SDS011;56582;44.624;20.378;2022-07-03T13:52:22;10.70;;;9.10;;
69392;SDS011;56582;44.624;20.378;2022-07-03T13:54:47;12.33;;;8.90;;
69392;SDS011;56582;44.624;20.378;2022-07-03T13:57:16;12.15;;;8.90;;
69392;SDS011;56582;44.624;20.378;2022-07-03T13:59:42;12.75;;;9.10;;
69392;SDS011;56582;44.624;20.378;2022-07-03T14:02:07;14.80;;;9.77;;
69392;SDS011;56582;44.624;20.378;2022-07-03T14:04:33;13.03;;;8.90;;
69392;SDS011;56582;44.624;20.378;2022-07-03T14:06:58;12.27;;;8.82;;
69392;SDS011;56582;44.624;20.378;2022-07-03T14:09:24;12.93;;;8.70;;
69392;SDS011;56582;44.624;20.378;2022-07-03T14:11:50;12.80;;;9.15;;
69392;SDS011;56582;44.624;20.378;2022-07-03T14:14:16;22.80;;;9.80;;
69392;SDS011;56582;44.624;20.378;2022-07-03T14:16:41;13.10;;;8.60;;
69392;SDS011;56582;44.624;20.378;2022-07-03T14:19:07;13.93;;;8.90;;
69392;SDS011;56582;44.624;20.378;2022-07-03T14:21:33;9.93;;;8.70;;
69392;SDS011;56582;44.624;20.378;2022-07-03T14:23:59;13.57;;;9.15;;
69392;SDS011;56582;44.624;20.378;2022-07-03T14:26:25;11.40;;;9.00;;
69392;SDS011;56582;44.624;20.378;2022-07-03T14:29:22;13.63;;;8.80;;
69392;SDS011;56582;44.624;20.378;2022-07-03T14:32:06;12.80;;;9.10;;
69392;SDS011;56582;44.624;20.378;2022-07-03T14:34:50;10.05;;;8.93;;
69392;SDS011;56582;44.624;20.378;2022-07-03T14:37:16;11.83;;;9.27;;
69392;SDS011;56582;44.624;20.378;2022-07-03T14:39:44;13.40;;;9.18;;
69392;SDS011;56582;44.624;20.378;2022-07-03T14:42:10;11.27;;;8.63;;
69392;SDS011;56582;44.624;20.378;2022-07-03T14:44:35;11.17;;;9.47;;
69392;SDS011;56582;44.624;20.378;2022-07-03T14:47:01;12.17;;;9.73;;
69392;SDS011;56582;44.624;20.378;2022-07-03T14:49:26;12.27;;;9.10;;
69392;SDS011;56582;44.624;20.378;2022-07-03T14:51:52;13.83;;;9.27;;
69392;SDS011;56582;44.624;20.378;2022-07-03T14:54:18;12.30;;;8.30;;
69392;SDS011;56582;44.624;20.378;2022-07-03T14:56:51;13.43;;;9.43;;
69392;SDS011;56582;44.624;20.378;2022-07-03T15:01:52;13.00;;;9.77;;
69392;SDS011;56582;44.624;20.378;2022-07-03T15:04:28;16.83;;;12.63;;
69392;SDS011;56582;44.624;20.378;2022-07-03T15:07:21;12.03;;;8.80;;
69392;SDS011;56582;44.624;20.378;2022-07-03T15:09:54;12.68;;;10.82;;
69392;SDS011;56582;44.624;20.378;2022-07-03T15:12:28;11.13;;;8.40;;
69392;SDS011;56582;44.624;20.378;2022-07-03T15:14:57;11.85;;;8.50;;
69392;SDS011;56582;44.624;20.378;2022-07-03T15:17:24;11.02;;;8.85;;
69392;SDS011;56582;44.624;20.378;2022-07-03T15:19:50;12.57;;;9.50;;
69392;SDS011;56582;44.624;20.378;2022-07-03T15:22:19;10.65;;;8.68;;
69392;SDS011;56582;44.624;20.378;2022-07-03T15:24:49;11.80;;;8.90;;
69392;SDS011;56582;44.624;20.378;2022-07-03T15:27:19;12.57;;;9.13;;
69392;SDS011;56582;44.624;20.378;2022-07-03T15:29:46;14.30;;;8.40;;
69392;SDS011;56582;44.624;20.378;2022-07-03T15:32:11;11.27;;;8.80;;
69392;SDS011;56582;44.624;20.378;2022-07-03T15:34:38;14.93;;;8.63;;
69392;SDS011;56582;44.624;20.378;2022-07-03T15:39:41;11.75;;;8.57;;
69392;SDS011;56582;44.624;20.378;2022-07-03T15:42:13;11.88;;;9.27;;
69392;SDS011;56582;44.624;20.378;2022-07-03T15:45:03;12.90;;;8.57;;
69392;SDS011;56582;44.624;20.378;2022-07-03T15:50:06;13.98;;;9.88;;
69392;SDS011;56582;44.624;20.378;2022-07-03T15:52:33;13.52;;;9.73;;
69392;SDS011;56582;44.624;20.378;2022-07-03T15:55:04;15.18;;;9.23;;
69392;SDS011;56582;44.624;20.378;2022-07-03T16:00:19;11.10;;;8.50;;
69392;SDS011;56582;44.624;20.378;2022-07-03T16:05:17;15.60;;;9.48;;
69392;SDS011;56582;44.624;20.378;2022-07-03T16:07:48;11.20;;;9.60;;
69392;SDS011;56582;44.624;20.378;2022-07-03T16:10:17;11.77;;;9.70;;
69392;SDS011;56582;44.624;20.378;2022-07-03T16:12:45;14.93;;;10.17;;
69392;SDS011;56582;44.624;20.378;2022-07-03T16:15:13;16.13;;;9.43;;
69392;SDS011;56582;44.624;20.378;2022-07-03T16:17:38;11.75;;;8.98;;
69392;SDS011;56582;44.624;20.378;2022-07-03T16:20:04;12.40;;;9.63;;
69392;SDS011;56582;44.624;20.378;2022-07-03T16:22:35;13.43;;;10.00;;